Time;durP1;ratioP1;P1;durP2;ratioP2;P2;SDS_P1;SDS_P2;PMS_P1;PMS_P2;Temp;Humidity;BMP_temperature;BMP_pressure;BME280_temperature;BME280_humidity;BME280_pressure;Samples;Min_cycle;Max_cycle;Signal;HPM_P1;HPM_P2
2022/05/25 00:00:01;;;;;;;1299.78;999.90;;;;;;;;;;1988466;28;20437;-73
2022/05/25 00:01:01;;;;;;;1297.80;999.90;;;;;;;;;;1988446;28;20174;-74
2022/05/25 00:02:01;;;;;;;1275.03;999.90;;;;;;;;;;1981193;28;20214;-73
2022/05/25 00:03:00;;;;;;;1287.93;999.90;;;;;;;;;;1981264;29;20311;-73
2022/05/25 00:04:00;;;;;;;1286.90;999.90;;;;;;;;;;1981054;29;20218;-74
2022/05/25 00:04:59;;;;;;;1285.68;999.90;;;;;;;;;;1981196;29;20253;-73
2022/05/25 00:05:58;;;;;;;1278.47;999.90;;;;;;;;;;1988089;28;20214;-72
2022/05/25 00:06:57;;;;;;;1293.32;999.90;;;;;;;;;;1988159;28;20429;-72
2022/05/25 00:07:57;;;;;;;1293.15;999.90;;;;;;;;;;1981391;28;20541;-73
2022/05/25 00:08:57;;;;;;;1309.22;999.90;;;;;;;;;;1981022;29;20262;-73
2022/05/25 00:09:56;;;;;;;1294.60;999.90;;;;;;;;;;1981283;29;20175;-73
2022/05/25 00:10:55;;;;;;;1270.17;999.90;;;;;;;;;;1987918;28;20645;-72
2022/05/25 00:11:54;;;;;;;1235.85;999.90;;;;;;;;;;1988049;28;20420;-73
2022/05/25 00:12:54;;;;;;;1285.57;999.90;;;;;;;;;;1981740;28;20171;-74
2022/05/25 00:13:53;;;;;;;1391.63;999.90;;;;;;;;;;1981084;29;20179;-73
2022/05/25 00:14:52;;;;;;;1358.97;999.90;;;;;;;;;;1981098;29;20184;-73
2022/05/25 00:15:51;;;;;;;1358.40;999.90;;;;;;;;;;1980992;28;20892;-73
2022/05/25 00:16:50;;;;;;;1379.47;999.90;;;;;;;;;;1988794;28;20495;-74
2022/05/25 00:17:50;;;;;;;1324.37;999.90;;;;;;;;;;1989648;28;20171;-73
2022/05/25 00:20:07;;;;;;;1151.20;999.90;;;;;;;;;;1982754;29;20523;-72
2022/05/25 00:21:06;;;;;;;1360.10;999.90;;;;;;;;;;1982526;29;20258;-72
2022/05/25 00:22:05;;;;;;;1353.13;999.90;;;;;;;;;;1982517;29;20187;-72
2022/05/25 00:23:04;;;;;;;1354.28;999.90;;;;;;;;;;1982365;29;20888;-73
2022/05/25 00:24:05;;;;;;;1368.32;999.90;;;;;;;;;;1982319;29;20514;-73
2022/05/25 00:25:05;;;;;;;1371.63;999.90;;;;;;;;;;1982560;29;20227;-73
2022/05/25 00:26:04;;;;;;;1373.35;999.90;;;;;;;;;;1982546;29;20186;-75
2022/05/25 00:27:03;;;;;;;1388.83;999.90;;;;;;;;;;1989480;28;20233;-75
2022/05/25 00:28:03;;;;;;;1370.88;999.90;;;;;;;;;;1989641;28;20490;-74
2022/05/25 00:29:03;;;;;;;1370.03;999.90;;;;;;;;;;1982743;28;20691;-74
2022/05/25 00:30:02;;;;;;;1372.32;999.90;;;;;;;;;;1982519;29;20647;-73
2022/05/25 00:31:02;;;;;;;1373.05;999.90;;;;;;;;;;1982709;28;20183;-73
2022/05/25 00:32:01;;;;;;;1378.50;999.90;;;;;;;;;;1982525;29;20185;-75
2022/05/25 00:33:03;;;;;;;1373.07;999.90;;;;;;;;;;1982433;28;20398;-73
2022/05/25 00:34:02;;;;;;;1364.78;999.90;;;19.00;96.20;;;;;;1982630;29;20414;-73
2022/05/25 00:35:01;;;;;;;1349.72;999.90;;;19.10;93.70;;;;;;1982256;29;20190;-73
2022/05/25 00:36:00;;;;;;;1342.37;999.90;;;19.10;93.60;;;;;;1982941;29;20186;-74
2022/05/25 00:36:58;;;;;;;1345.27;999.90;;;19.00;93.60;;;;;;1983310;29;20190;-72
2022/05/25 00:37:58;;;;;;;1335.90;999.90;;;19.10;93.60;;;;;;1982977;29;20190;-73
2022/05/25 00:38:57;;;;;;;1340.15;999.90;;;19.10;93.60;;;;;;1982592;29;20171;-73
2022/05/25 00:39:55;;;;;;;1345.13;999.90;;;19.00;93.60;;;;;;1982838;29;20273;-73
2022/05/25 00:40:56;;;;;;;1323.70;999.90;;;19.00;93.60;;;;;;1982790;29;20207;-72
2022/05/25 00:41:55;;;;;;;1330.82;999.90;;;19.10;93.60;;;;;;1982773;29;20202;-72
2022/05/25 00:42:53;;;;;;;1343.43;999.90;;;19.00;93.60;;;;;;1982442;29;20201;-73
2022/05/25 00:43:52;;;;;;;1327.63;999.90;;;19.00;93.60;;;;;;1982526;29;20217;-73
2022/05/25 00:44:50;;;;;;;1346.50;999.90;;;19.00;93.60;;;;;;1981827;29;20695;-73
2022/05/25 00:45:58;;;;;;;1345.17;999.90;;;19.00;93.60;;;;;;1981850;29;20722;-74
2022/05/25 00:46:57;;;;;;;1344.32;999.90;;;19.00;93.60;;;;;;1981836;29;20210;-75
2022/05/25 00:47:56;;;;;;;1352.43;999.90;;;19.00;93.60;;;;;;1982342;29;20187;-73
2022/05/25 00:49:21;;;;;;;1353.37;999.90;;;19.00;93.60;;;;;;1981570;28;20726;-73
2022/05/25 00:50:23;;;;;;;1351.22;999.90;;;19.00;93.60;;;;;;1981843;29;20485;-74
2022/05/25 00:51:29;;;;;;;1354.68;999.90;;;19.00;93.60;;;;;;1989320;28;20596;-73
2022/05/25 00:52:27;;;;;;;1357.45;999.90;;;19.00;93.60;;;;;;1988876;28;20244;-72
2022/05/25 00:53:27;;;;;;;1364.13;999.90;;;19.00;93.60;;;;;;1982420;29;20175;-73
2022/05/25 00:54:35;;;;;;;1352.30;999.90;;;19.20;93.70;;;;;;1982388;29;20198;-73
2022/05/25 00:55:33;;;;;;;1355.97;999.90;;;19.00;93.60;;;;;;1982218;29;20689;-73
2022/05/25 00:56:34;;;;;;;1333.67;999.90;;;19.10;93.60;;;;;;1981958;29;20230;-72
2022/05/25 00:57:40;;;;;;;1341.00;999.90;;;19.00;93.60;;;;;;1982101;29;20186;-73
2022/05/25 00:58:42;;;;;;;1329.20;999.90;;;19.00;93.60;;;;;;1982140;29;20504;-73
2022/05/25 00:59:55;;;;;;;1126.45;998.35;;;19.00;93.60;;;;;;1982088;29;20183;-73
2022/05/25 01:00:54;;;;;;;1330.28;999.90;;;19.00;93.50;;;;;;1982443;28;20199;-73
2022/05/25 01:01:54;;;;;;;1320.93;999.90;;;19.00;93.60;;;;;;1982285;29;20725;-73
2022/05/25 01:02:59;;;;;;;1348.05;999.90;;;19.00;93.60;;;;;;1982355;29;20163;-73
2022/05/25 01:03:58;;;;;;;1327.82;999.90;;;19.00;93.60;;;;;;1982389;28;20188;-73
2022/05/25 01:04:57;;;;;;;1341.10;999.90;;;19.00;93.60;;;;;;1982029;29;20206;-73
2022/05/25 01:06:34;;;;;;;1327.47;999.90;;;19.00;93.60;;;;;;1982432;29;20183;-73
2022/05/25 01:08:16;;;;;;;1329.47;999.90;;;19.00;93.60;;;;;;1978979;29;20410;-73
2022/05/25 01:09:52;;;;;;;1340.47;999.90;;;19.00;93.60;;;;;;1982477;29;20159;-72
2022/05/25 01:10:59;;;;;;;1333.25;999.90;;;19.00;93.60;;;;;;1982270;29;20187;-73
2022/05/25 01:12:30;;;;;;;1327.93;999.90;;;19.00;93.60;;;;;;1982368;28;20265;-73
2022/05/25 01:13:46;;;;;;;1330.97;999.90;;;19.00;93.60;;;;;;1981884;29;20175;-72
2022/05/25 01:15:06;;;;;;;1336.15;999.90;;;19.00;93.60;;;;;;1982309;29;20254;-74
2022/05/25 01:16:19;;;;;;;1335.18;999.90;;;19.10;93.60;;;;;;1989530;28;20210;-73
2022/05/25 01:17:32;;;;;;;1341.50;999.90;;;19.00;93.50;;;;;;1988070;28;20205;-73
2022/05/25 01:18:53;;;;;;;1332.85;999.90;;;19.00;93.60;;;;;;1981851;28;20186;-73
2022/05/25 01:20:08;;;;;;;1326.22;999.90;;;19.00;93.60;;;;;;1982230;29;20193;-73
2022/05/25 01:21:25;;;;;;;1334.65;999.90;;;19.00;93.60;;;;;;1982465;29;20506;-73
2022/05/25 01:22:29;;;;;;;1329.20;999.90;;;19.00;93.60;;;;;;1982737;29;20539;-74
2022/05/25 01:23:56;;;;;;;1329.97;999.90;;;19.00;93.60;;;;;;1981909;29;20171;-73
2022/05/25 01:25:29;;;;;;;1336.93;999.90;;;19.00;93.60;;;;;;1982232;29;20202;-73
2022/05/25 01:27:12;;;;;;;1340.22;999.90;;;19.00;93.60;;;;;;1982883;29;20599;-73
2022/05/25 01:28:22;;;;;;;1338.28;999.90;;;19.00;93.60;;;;;;1983100;29;20520;-72
2022/05/25 01:29:45;;;;;;;1340.63;999.90;;;19.00;93.60;;;;;;1983833;29;20159;-73
2022/05/25 01:30:51;;;;;;;1125.10;997.92;;;19.00;93.60;;;;;;1984243;29;20190;-73
2022/05/25 01:32:08;;;;;;;1344.40;999.90;;;19.00;93.60;;;;;;1983831;29;20163;-72
2022/05/25 01:33:36;;;;;;;1328.28;999.90;;;19.00;93.60;;;;;;1983649;29;20489;-72
2022/05/25 01:34:46;;;;;;;1339.25;999.90;;;19.00;93.70;;;;;;1984176;29;20285;-73
2022/05/25 01:36:00;;;;;;;1330.65;999.90;;;18.90;93.60;;;;;;1983997;29;20187;-72
2022/05/25 01:37:17;;;;;;;1314.75;999.90;;;19.00;93.70;;;;;;1983970;29;20192;-73
2022/05/25 01:38:51;;;;;;;1338.32;999.90;;;19.00;93.70;;;;;;1983660;28;20265;-73
2022/05/25 01:40:02;;;;;;;1331.22;999.90;;;18.90;93.60;;;;;;1980864;28;20218;-74
2022/05/25 01:41:24;;;;;;;1345.32;999.90;;;19.00;93.70;;;;;;1991055;29;20233;-74
2022/05/25 01:42:28;;;;;;;1351.18;999.90;;;19.00;93.70;;;;;;1991014;29;20156;-74
2022/05/25 01:43:52;;;;;;;1337.38;999.90;;;19.00;93.70;;;;;;1991155;29;20160;-74
2022/05/25 01:44:59;;;;;;;1336.78;999.90;;;19.00;93.70;;;;;;1990917;28;20195;-74
2022/05/25 01:46:06;;;;;;;1353.72;999.90;;;19.00;93.70;;;;;;1990995;29;20160;-74
2022/05/25 01:47:09;;;;;;;1344.38;999.90;;;19.00;93.70;;;;;;1990828;29;20203;-74
2022/05/25 01:48:10;;;;;;;1326.78;999.90;;;19.00;93.70;;;;;;1990707;28;20155;-74
2022/05/25 01:49:14;;;;;;;1320.70;999.90;;;19.00;93.70;;;;;;1991183;29;20151;-74
2022/05/25 01:50:19;;;;;;;1335.22;999.90;;;19.00;93.70;;;;;;1997864;28;20171;-74
2022/05/25 01:51:33;;;;;;;1331.88;999.90;;;19.00;93.70;;;;;;1997857;28;20175;-73
2022/05/25 01:52:37;;;;;;;1319.10;999.90;;;18.90;93.60;;;;;;1990628;29;20163;-72
2022/05/25 01:53:40;;;;;;;1339.75;999.90;;;19.00;93.70;;;;;;1989240;29;20168;-73
2022/05/25 01:54:46;;;;;;;1326.57;999.90;;;19.00;93.70;;;;;;1984579;29;20168;-73
2022/05/25 01:55:54;;;;;;;1337.85;999.90;;;19.00;93.70;;;;;;1991170;28;20198;-74
2022/05/25 01:56:57;;;;;;;1337.35;999.90;;;19.00;93.70;;;;;;1998317;28;20340;-73
2022/05/25 01:58:04;;;;;;;1328.68;999.90;;;19.00;93.70;;;;;;1998632;28;20178;-75
2022/05/25 01:59:07;;;;;;;1317.45;999.90;;;18.90;93.60;;;;;;1991056;29;20527;-75
2022/05/25 02:00:07;;;;;;;1318.10;999.90;;;18.90;93.70;;;;;;1990779;28;20155;-72
2022/05/25 02:01:09;;;;;;;1336.13;999.90;;;18.90;93.70;;;;;;1989315;29;20238;-74
2022/05/25 02:04:45;;;;;;;1327.88;999.90;;;18.90;93.70;;;;;;1993342;28;20139;-73
2022/05/25 02:06:03;;;;;;;1327.53;999.90;;;18.90;93.70;;;;;;1990134;29;20183;-74
2022/05/25 02:07:14;;;;;;;1347.07;999.90;;;18.90;93.70;;;;;;1989924;29;20251;-73
2022/05/25 02:08:54;;;;;;;1343.88;999.90;;;19.00;93.70;;;;;;1987890;29;20207;-73
2022/05/25 02:10:25;;;;;;;1338.10;999.90;;;18.90;94.00;;;;;;1966618;29;20189;-72
2022/05/25 02:11:42;;;;;;;1336.65;999.90;;;19.00;93.70;;;;;;1990311;29;20172;-73
2022/05/25 02:13:11;;;;;;;1337.93;999.90;;;18.90;93.70;;;;;;1990673;28;20184;-74
2022/05/25 02:14:28;;;;;;;1341.88;999.90;;;19.00;93.70;;;;;;1990657;28;20250;-75
2022/05/25 02:15:45;;;;;;;1338.75;999.90;;;19.00;93.80;;;;;;1990560;29;20303;-73
2022/05/25 02:16:54;;;;;;;1346.68;999.90;;;19.00;93.70;;;;;;1990841;29;20183;-75
2022/05/25 02:18:04;;;;;;;1335.13;999.90;;;18.90;93.70;;;;;;1990396;29;20226;-74
2022/05/25 02:19:43;;;;;;;1338.45;999.90;;;18.90;93.70;;;;;;1990651;28;20160;-74
2022/05/25 02:20:50;;;;;;;1331.30;999.90;;;18.90;93.70;;;;;;1997247;28;20181;-74
2022/05/25 02:21:56;;;;;;;1320.20;999.90;;;18.90;93.70;;;;;;1996805;28;20146;-72
2022/05/25 02:23:00;;;;;;;1321.85;999.90;;;18.90;93.60;;;;;;1989933;29;20168;-74
2022/05/25 02:24:06;;;;;;;1328.10;999.90;;;18.90;93.70;;;;;;1989825;29;20494;-75
2022/05/25 02:25:29;;;;;;;1343.05;999.90;;;18.90;93.60;;;;;;1989523;29;20191;-72
2022/05/25 02:26:33;;;;;;;1308.95;999.90;;;18.90;93.70;;;;;;1988263;29;20151;-72
2022/05/25 02:27:35;;;;;;;1330.00;999.90;;;18.90;93.70;;;;;;1981804;29;20242;-73
2022/05/25 02:28:40;;;;;;;1321.20;999.90;;;18.90;93.70;;;;;;1981856;29;20474;-73
2022/05/25 02:29:43;;;;;;;1322.32;999.90;;;18.90;93.70;;;;;;1981763;29;20243;-73
2022/05/25 02:30:46;;;;;;;1340.20;999.90;;;18.90;93.70;;;;;;1988743;28;20205;-73
2022/05/25 02:31:54;;;;;;;1321.22;999.90;;;18.90;93.70;;;;;;1988837;28;20357;-73
2022/05/25 02:33:35;;;;;;;1322.65;999.90;;;18.90;93.70;;;;;;1979269;29;20666;-73
2022/05/25 02:34:37;;;;;;;1333.50;999.90;;;18.90;93.70;;;;;;1976622;29;20182;-73
2022/05/25 02:35:40;;;;;;;1332.18;999.90;;;18.90;93.70;;;;;;1981646;28;20194;-74
2022/05/25 02:36:39;;;;;;;1316.40;999.90;;;18.90;93.70;;;;;;1981281;29;20178;-74
2022/05/25 02:37:40;;;;;;;1333.13;999.90;;;18.90;93.70;;;;;;1981623;28;20176;-73
2022/05/25 02:38:42;;;;;;;1339.18;999.90;;;18.90;93.70;;;;;;1981618;28;20174;-73
2022/05/25 02:39:46;;;;;;;1337.13;999.90;;;18.90;93.70;;;;;;1980813;29;20247;-73
2022/05/25 02:40:44;;;;;;;1335.18;999.90;;;18.90;93.70;;;;;;1981544;29;20589;-73
2022/05/25 02:41:50;;;;;;;1321.40;999.90;;;18.90;93.70;;;;;;1981458;29;20179;-73
2022/05/25 02:42:48;;;;;;;1337.22;999.90;;;18.90;93.70;;;;;;1988621;28;20175;-73
2022/05/25 02:43:47;;;;;;;1336.77;999.90;;;18.90;93.70;;;;;;1988776;28;20205;-73
2022/05/25 02:44:46;;;;;;;1329.10;999.90;;;18.90;93.70;;;;;;1981954;28;20175;-74
2022/05/25 02:45:46;;;;;;;1337.38;999.90;;;18.90;93.70;;;;;;1981463;29;20181;-72
2022/05/25 02:46:45;;;;;;;1333.43;999.90;;;18.90;93.70;;;;;;1981277;29;20223;-74
2022/05/25 02:47:44;;;;;;;1330.40;999.90;;;18.90;93.70;;;;;;1988397;28;20178;-72
2022/05/25 02:48:44;;;;;;;1331.60;999.90;;;18.90;93.80;;;;;;1988620;28;20398;-72
2022/05/25 02:49:42;;;;;;;1336.68;999.90;;;18.90;93.80;;;;;;1973435;29;20176;-72
2022/05/25 02:50:41;;;;;;;1321.30;999.90;;;18.90;93.80;;;;;;1973212;29;20179;-73
2022/05/25 02:51:41;;;;;;;1332.13;999.90;;;18.90;93.80;;;;;;1980860;29;20174;-73
2022/05/25 02:52:40;;;;;;;1332.97;999.90;;;18.90;93.80;;;;;;1981387;29;20194;-73
2022/05/25 02:53:38;;;;;;;1332.03;999.90;;;18.90;93.80;;;;;;1981436;29;20263;-72
2022/05/25 02:54:38;;;;;;;1318.93;999.90;;;18.90;93.80;;;;;;1988459;28;20179;-73
2022/05/25 02:55:36;;;;;;;1333.18;999.90;;;18.90;93.80;;;;;;1988576;28;20173;-73
2022/05/25 02:56:35;;;;;;;1326.77;999.90;;;18.90;93.80;;;;;;1981550;28;20203;-73
2022/05/25 02:57:34;;;;;;;1319.13;999.90;;;18.90;93.80;;;;;;1981383;29;20209;-73
2022/05/25 02:58:34;;;;;;;1326.63;999.90;;;18.90;93.80;;;;;;1981349;29;20179;-72
2022/05/25 02:59:33;;;;;;;1328.22;999.90;;;18.90;93.80;;;;;;1981130;29;20175;-73
2022/05/25 03:00:32;;;;;;;1321.03;999.90;;;18.90;93.80;;;;;;1980793;29;20270;-73
2022/05/25 03:01:30;;;;;;;1330.77;999.90;;;18.90;93.80;;;;;;1980916;29;20179;-73
2022/05/25 03:02:29;;;;;;;1334.67;999.90;;;18.90;93.90;;;;;;1981388;28;20171;-73
2022/05/25 03:03:28;;;;;;;1335.03;999.90;;;18.90;93.90;;;;;;1988229;28;20189;-73
2022/05/25 03:04:27;;;;;;;1339.30;999.90;;;18.90;93.90;;;;;;1988327;28;20179;-73
2022/05/25 03:05:26;;;;;;;1330.93;999.90;;;18.90;93.90;;;;;;1981821;28;20215;-73
2022/05/25 03:06:24;;;;;;;1341.33;999.90;;;18.90;93.90;;;;;;1981314;29;20262;-73
2022/05/25 03:07:23;;;;;;;1335.40;999.90;;;18.90;94.00;;;;;;1981317;29;20178;-72
2022/05/25 03:08:21;;;;;;;1319.97;999.90;;;18.80;93.90;;;;;;1981352;29;20175;-73
2022/05/25 03:09:20;;;;;;;1329.07;999.90;;;18.80;93.90;;;;;;1981442;29;20256;-73
2022/05/25 03:10:18;;;;;;;1317.50;999.90;;;18.90;94.00;;;;;;1981412;29;20257;-73
2022/05/25 03:11:17;;;;;;;1317.67;999.90;;;18.90;94.00;;;;;;1981129;29;20247;-73
2022/05/25 03:12:17;;;;;;;1329.40;999.90;;;18.90;93.90;;;;;;1973037;29;20196;-72
2022/05/25 03:13:15;;;;;;;1320.10;999.90;;;18.90;94.00;;;;;;1973038;29;20179;-73
2022/05/25 03:14:14;;;;;;;1330.33;999.90;;;18.80;94.00;;;;;;1981205;29;20282;-73
2022/05/25 03:15:13;;;;;;;1345.63;999.90;;;18.90;94.00;;;;;;1980654;29;20218;-74
2022/05/25 03:16:13;;;;;;;1345.22;999.90;;;18.90;94.00;;;;;;1980740;28;20183;-73
2022/05/25 03:17:14;;;;;;;1352.82;999.90;;;18.90;94.00;;;;;;1981167;29;20250;-73
2022/05/25 03:18:14;;;;;;;1349.68;999.90;;;18.90;94.00;;;;;;1981327;29;20537;-73
2022/05/25 03:19:13;;;;;;;1360.63;999.90;;;18.90;94.00;;;;;;1988553;28;20198;-73
2022/05/25 03:20:12;;;;;;;1359.60;999.90;;;18.90;94.00;;;;;;1988517;28;20666;-73
2022/05/25 03:21:11;;;;;;;1350.23;999.90;;;18.90;94.00;;;;;;1981468;28;20351;-73
2022/05/25 03:22:09;;;;;;;1341.10;999.90;;;18.80;94.00;;;;;;1981437;29;20394;-73
2022/05/25 03:23:08;;;;;;;1359.43;999.90;;;18.80;94.00;;;;;;1981198;29;20186;-73
2022/05/25 03:24:08;;;;;;;1362.10;999.90;;;18.80;94.00;;;;;;1980449;29;20419;-72
2022/05/25 03:25:08;;;;;;;1343.50;999.90;;;18.90;94.10;;;;;;1980854;29;20249;-72
2022/05/25 03:26:06;;;;;;;1343.85;999.90;;;18.80;94.00;;;;;;1981421;29;20190;-72
2022/05/25 03:27:06;;;;;;;1348.00;999.90;;;18.80;94.00;;;;;;1981328;29;20564;-72
2022/05/25 03:28:05;;;;;;;1323.70;999.90;;;18.80;94.20;;;;;;1981264;28;20174;-73
2022/05/25 03:29:05;;;;;;;1327.23;999.90;;;18.90;94.10;;;;;;1981418;28;20575;-73
2022/05/25 03:30:06;;;;;;;1326.78;999.90;;;18.80;94.10;;;;;;1981246;29;20226;-72
2022/05/25 03:31:04;;;;;;;1327.32;999.90;;;18.80;94.10;;;;;;1981368;29;20179;-73
2022/05/25 03:32:03;;;;;;;1334.57;999.90;;;18.80;94.10;;;;;;1981222;29;20174;-73
2022/05/25 03:33:02;;;;;;;1331.17;999.90;;;18.80;94.10;;;;;;1981218;29;20167;-75
2022/05/25 03:34:00;;;;;;;1317.63;999.90;;;18.80;94.20;;;;;;1988255;28;20425;-73
2022/05/25 03:34:59;;;;;;;1330.60;999.90;;;18.80;94.20;;;;;;1988359;28;20201;-73
2022/05/25 03:35:58;;;;;;;1346.65;999.90;;;18.80;94.20;;;;;;1981684;28;20179;-73
2022/05/25 03:36:58;;;;;;;1329.93;999.90;;;18.80;94.20;;;;;;1981222;29;20266;-73
2022/05/25 03:37:58;;;;;;;1336.40;999.90;;;18.80;94.20;;;;;;1981097;29;20183;-73
2022/05/25 03:38:57;;;;;;;1339.93;999.90;;;18.80;94.20;;;;;;1981213;29;20184;-73
2022/05/25 03:39:55;;;;;;;1341.37;999.90;;;18.80;94.20;;;;;;1981196;29;20181;-73
2022/05/25 03:40:55;;;;;;;1341.50;999.90;;;18.80;94.20;;;;;;1981358;29;20209;-73
2022/05/25 03:41:55;;;;;;;1335.32;999.90;;;18.80;94.20;;;;;;1981215;29;20179;-72
2022/05/25 03:42:54;;;;;;;1333.32;999.90;;;18.90;94.30;;;;;;1981290;29;20186;-73
2022/05/25 03:43:52;;;;;;;1336.60;999.90;;;18.90;94.40;;;;;;1980500;28;20283;-72
2022/05/25 03:44:52;;;;;;;1341.03;999.90;;;18.80;94.30;;;;;;1980622;29;20171;-73
2022/05/25 03:45:51;;;;;;;1331.57;999.90;;;18.80;94.40;;;;;;1981268;29;20176;-72
2022/05/25 03:46:50;;;;;;;1349.30;999.90;;;18.80;94.40;;;;;;1981171;29;20194;-72
2022/05/25 03:47:49;;;;;;;1325.05;999.90;;;18.80;94.50;;;;;;1981271;29;20271;-72
2022/05/25 03:48:49;;;;;;;1329.90;999.90;;;18.80;94.50;;;;;;1981321;28;20674;-72
2022/05/25 03:49:47;;;;;;;1329.88;999.90;;;18.80;94.50;;;;;;1981087;29;20174;-72
2022/05/25 03:50:46;;;;;;;1341.87;999.90;;;18.80;94.60;;;;;;1981298;28;20215;-72
2022/05/25 03:51:45;;;;;;;1339.67;999.90;;;18.80;94.60;;;;;;1982299;29;20650;-71
2022/05/25 03:52:46;;;;;;;1346.70;999.90;;;18.80;94.60;;;;;;1974533;29;20640;-71
2022/05/25 03:53:45;;;;;;;1346.47;999.90;;;18.80;94.60;;;;;;1974662;29;20211;-72
2022/05/25 03:54:43;;;;;;;1338.00;999.90;;;18.80;94.60;;;;;;1982580;29;20647;-73
2022/05/25 03:55:42;;;;;;;1346.23;999.90;;;18.80;94.60;;;;;;1982501;29;20171;-72
2022/05/25 03:56:42;;;;;;;1325.13;999.90;;;18.80;94.60;;;;;;1982530;29;20556;-73
2022/05/25 03:57:41;;;;;;;1336.93;999.90;;;18.80;94.60;;;;;;1982605;29;20179;-75
2022/05/25 03:58:39;;;;;;;1345.57;999.90;;;18.80;94.70;;;;;;1982432;28;20225;-73
2022/05/25 03:59:38;;;;;;;1324.50;999.90;;;18.80;94.70;;;;;;1982768;29;20190;-72
2022/05/25 04:00:37;;;;;;;1336.30;999.90;;;18.80;94.70;;;;;;1982670;29;20214;-73
2022/05/25 04:01:36;;;;;;;1345.15;999.90;;;18.80;95.00;;;;;;1982748;29;20179;-73
2022/05/25 04:02:35;;;;;;;1342.07;999.90;;;18.80;94.80;;;;;;1982814;28;20180;-74
2022/05/25 04:03:34;;;;;;;1335.67;999.90;;;18.80;94.80;;;;;;1982563;29;20171;-73
2022/05/25 04:04:32;;;;;;;1343.67;999.90;;;18.80;94.90;;;;;;1982637;29;20175;-74
2022/05/25 04:05:32;;;;;;;1336.93;999.90;;;18.80;95.00;;;;;;1982493;28;20297;-72
2022/05/25 04:06:32;;;;;;;1331.45;999.90;;;18.80;95.00;;;;;;1982380;29;20167;-73
2022/05/25 04:07:31;;;;;;;1344.43;999.90;;;18.80;95.00;;;;;;1982455;29;20597;-73
2022/05/25 04:08:29;;;;;;;1312.97;999.90;;;18.80;95.00;;;;;;1982423;29;20175;-73
2022/05/25 04:09:29;;;;;;;1322.97;999.90;;;18.80;95.30;;;;;;1982461;29;20546;-73
2022/05/25 04:10:28;;;;;;;1335.45;999.90;;;18.80;95.00;;;;;;1982548;29;20206;-71
2022/05/25 04:11:27;;;;;;;1335.93;999.90;;;18.80;95.10;;;;;;1982469;29;20174;-73
2022/05/25 04:12:25;;;;;;;1342.40;999.90;;;18.80;95.20;;;;;;1982357;29;20250;-73
2022/05/25 04:13:25;;;;;;;1339.73;999.90;;;18.80;95.10;;;;;;1982524;28;20174;-72
2022/05/25 04:14:24;;;;;;;1345.07;999.90;;;18.80;95.20;;;;;;1982715;29;20171;-73
2022/05/25 04:15:26;;;;;;;1344.70;999.90;;;18.80;95.30;;;;;;1982629;29;20262;-72
2022/05/25 04:16:25;;;;;;;1337.30;999.90;;;18.80;95.30;;;;;;1982300;29;20403;-72
2022/05/25 04:17:25;;;;;;;1335.90;999.90;;;18.80;95.50;;;;;;1982643;29;20223;-72
2022/05/25 04:18:24;;;;;;;1340.15;999.90;;;18.80;95.50;;;;;;1982409;29;20411;-73
2022/05/25 04:19:22;;;;;;;1328.53;999.90;;;18.80;95.70;;;;;;1982650;29;20182;-73
2022/05/25 04:20:22;;;;;;;1328.70;999.90;;;18.80;95.90;;;;;;1982573;28;20171;-74
2022/05/25 04:21:21;;;;;;;1334.93;999.90;;;;;;;;;;1982565;29;20639;-72
2022/05/25 04:22:20;;;;;;;1338.15;999.90;;;;;;;;;;1982326;29;20183;-73
2022/05/25 04:23:20;;;;;;;1321.60;999.90;;;;;;;;;;1982488;29;20596;-73
2022/05/25 04:24:19;;;;;;;1322.18;999.90;;;;;;;;;;1982462;29;20541;-73
2022/05/25 04:25:19;;;;;;;1327.03;999.90;;;;;;;;;;1982503;28;20195;-73
2022/05/25 04:26:18;;;;;;;1328.07;999.90;;;;;;;;;;1982435;29;20406;-72
2022/05/25 04:27:18;;;;;;;1330.83;999.90;;;;;;;;;;1982353;29;20196;-75
2022/05/25 04:28:16;;;;;;;1335.38;999.90;;;;;;;;;;1982218;29;20474;-72
2022/05/25 04:29:15;;;;;;;1344.22;999.90;;;;;;;;;;1982486;29;20180;-72
2022/05/25 04:30:17;;;;;;;1335.60;999.90;;;;;;;;;;1982266;28;20282;-72
2022/05/25 04:31:19;;;;;;;1331.88;999.90;;;;;;;;;;1982472;29;20411;-75
2022/05/25 04:32:18;;;;;;;1343.07;999.90;;;;;;;;;;1982290;29;20582;-75
2022/05/25 04:33:17;;;;;;;1320.03;999.90;;;;;;;;;;1982391;29;20187;-72
2022/05/25 04:34:16;;;;;;;1332.20;999.90;;;;;;;;;;1982460;29;20206;-72
2022/05/25 04:35:18;;;;;;;1329.67;999.90;;;;;;;;;;1982336;29;20749;-72
2022/05/25 04:36:19;;;;;;;1339.38;999.90;;;;;;;;;;1989591;28;20418;-72
2022/05/25 04:38:36;;;;;;;1339.95;999.90;;;;;;;;;;1982526;29;20167;-72
2022/05/25 04:39:35;;;;;;;1335.60;999.90;;;;;;;;;;1982402;29;20172;-72
2022/05/25 04:40:36;;;;;;;1330.37;999.90;;;;;;;;;;1982374;29;20178;-72
2022/05/25 04:41:36;;;;;;;1339.90;999.90;;;;;;;;;;1982598;29;20419;-72
2022/05/25 04:42:35;;;;;;;1333.88;999.90;;;;;;;;;;1984928;29;20171;-73
2022/05/25 04:43:34;;;;;;;1325.97;999.90;;;;;;;;;;1987614;28;20215;-72
2022/05/25 04:44:33;;;;;;;1331.93;999.90;;;;;;;;;;1989171;29;20402;-73
2022/05/25 04:45:32;;;;;;;1330.97;999.90;;;;;;;;;;1989692;29;20473;-73
2022/05/25 04:46:31;;;;;;;1335.03;999.90;;;;;;;;;;1987686;29;20936;-73
2022/05/25 04:47:33;;;;;;;1329.00;999.90;;;;;;;;;;1987843;29;20167;-73
2022/05/25 04:48:32;;;;;;;1327.43;999.90;;;;;;;;;;1986471;29;20171;-74
2022/05/25 04:49:31;;;;;;;1336.57;999.90;;;;;;;;;;1983006;29;20171;-74
2022/05/25 04:50:33;;;;;;;1333.40;999.90;;;;;;;;;;1982487;29;20405;-73
2022/05/25 04:51:32;;;;;;;1332.13;999.90;;;;;;;;;;1982286;29;20447;-73
2022/05/25 04:52:31;;;;;;;1329.90;999.90;;;;;;;;;;1982286;29;20175;-73
2022/05/25 04:53:30;;;;;;;1304.47;999.90;;;;;;;;;;1982459;29;20875;-73
2022/05/25 04:54:29;;;;;;;1328.47;999.90;;;;;;;;;;1982365;29;20415;-74
2022/05/25 04:58:05;;;;;;;1327.28;999.90;;;;;;;;;;1982623;29;20163;-72
2022/05/25 04:59:04;;;;;;;1345.05;999.90;;;;;;;;;;1982425;29;20168;-73
2022/05/25 05:00:05;;;;;;;1321.10;999.90;;;;;;;;;;1982438;29;20238;-73
2022/05/25 05:01:05;;;;;;;1327.22;999.90;;;;;;;;;;1982482;29;20409;-73
2022/05/25 05:02:04;;;;;;;1331.15;999.90;;;;;;;;;;1982451;28;20211;-73
2022/05/25 05:03:03;;;;;;;1329.47;999.90;;;;;;;;;;1982137;29;20179;-73
2022/05/25 05:04:02;;;;;;;1331.27;999.90;;;;;;;;;;1982633;29;20422;-73
2022/05/25 05:05:02;;;;;;;1328.30;999.90;;;;;;;;;;1982274;29;20458;-73
2022/05/25 05:06:01;;;;;;;1315.32;999.90;;;;;;;;;;1982583;29;20890;-74
2022/05/25 05:07:00;;;;;;;1333.88;999.90;;;;;;;;;;1982454;29;20526;-75
2022/05/25 05:07:59;;;;;;;1333.23;999.90;;;;;;;;;;1982348;29;20222;-72
2022/05/25 05:08:58;;;;;;;1314.07;999.90;;;;;;;;;;1982419;29;20419;-72
2022/05/25 05:09:58;;;;;;;1312.33;999.90;;;;;;;;;;1982466;29;20175;-72
2022/05/25 05:10:57;;;;;;;1324.45;999.90;;;;;;;;;;1982363;29;20425;-73
2022/05/25 05:11:56;;;;;;;1319.22;999.90;;;;;;;;;;1982493;29;20167;-72
2022/05/25 05:12:56;;;;;;;1316.87;999.90;;;;;;;;;;1989351;28;20186;-72
2022/05/25 05:13:55;;;;;;;1327.97;999.90;;;;;;;;;;1981900;29;20803;-72
2022/05/25 05:14:54;;;;;;;1317.87;999.90;;;;;;;;;;1974476;29;20194;-73
2022/05/25 05:15:53;;;;;;;1319.18;999.90;;;;;;;;;;1982263;29;20462;-72
2022/05/25 05:17:00;;;;;;;1328.07;999.90;;;;;;;;;;1982429;28;20569;-73
2022/05/25 05:17:59;;;;;;;1322.40;999.90;;;;;;;;;;1982210;29;20632;-72
2022/05/25 05:18:59;;;;;;;1326.20;999.90;;;;;;;;;;1982111;28;20201;-73
2022/05/25 05:19:58;;;;;;;1328.03;999.90;;;;;;;;;;1981903;29;20174;-73
2022/05/25 05:20:57;;;;;;;1317.00;999.90;;;;;;;;;;1982024;29;20254;-73
2022/05/25 05:21:59;;;;;;;1319.60;999.90;;;;;;;;;;1981982;29;20585;-73
2022/05/25 05:22:58;;;;;;;1318.10;999.90;;;;;;;;;;1981946;29;20171;-73
2022/05/25 05:23:57;;;;;;;1307.60;999.90;;;;;;;;;;1982060;29;20180;-73
2022/05/25 05:24:57;;;;;;;1313.00;999.90;;;;;;;;;;1982020;29;20207;-71
2022/05/25 05:25:56;;;;;;;1313.15;999.90;;;;;;;;;;1982130;28;20433;-72
2022/05/25 05:26:55;;;;;;;1317.40;999.90;;;;;;;;;;1982069;29;20195;-73
2022/05/25 05:27:54;;;;;;;1329.40;999.90;;;;;;;;;;1981998;29;20434;-73